Time;durP1;ratioP1;P1;durP2;ratioP2;P2;SDS_P1;SDS_P2;PMS_P1;PMS_P2;Temp;Humidity;BMP_temperature;BMP_pressure;BME280_temperature;BME280_humidity;BME280_pressure;Samples;Min_cycle;Max_cycle;Signal;HPM_P1;HPM_P2
2021/12/14 00:00:57;;;;;;;276.07;100.70;;;1.30;73.10;;;;;;5015526;28;20040;-81
2021/12/14 00:03:27;;;;;;;252.13;99.50;;;1.30;73.10;;;;;;5014304;28;20838;-81
2021/12/14 00:05:53;;;;;;;246.07;95.97;;;1.30;73.10;;;;;;5016612;28;20390;-83
2021/12/14 00:08:19;;;;;;;257.67;98.10;;;1.40;73.10;;;;;;5014142;28;20018;-83
2021/12/14 00:11:12;;;;;;;241.87;96.13;;;1.40;73.10;;;;;;5015851;28;20026;-82
2021/12/14 00:16:04;;;;;;;247.73;100.13;;;1.40;73.00;;;;;;5016876;28;20513;-83
2021/12/14 00:18:32;;;;;;;246.70;94.87;;;1.50;73.00;;;;;;5015314;28;20076;-82
2021/12/14 00:21:18;;;;;;;236.03;89.83;;;1.50;73.00;;;;;;5015416;28;20109;-81
2021/12/14 00:26:29;;;;;;;251.03;96.27;;;1.60;72.90;;;;;;5010509;28;20044;-82
2021/12/14 00:28:55;;;;;;;;;;;1.60;72.80;;;;;;5015702;28;20030;-82
2021/12/14 00:31:21;;;;;;;238.17;93.57;;;1.70;72.80;;;;;;5015041;28;19913;-82
2021/12/14 00:33:54;;;;;;;248.73;95.57;;;1.70;72.40;;;;;;5015230;28;20026;-82
2021/12/14 00:36:21;;;;;;;248.10;92.97;;;1.70;72.60;;;;;;5016035;28;20033;-82
2021/12/14 00:38:54;;;;;;;243.57;93.33;;;1.70;72.60;;;;;;5014894;28;20044;-82
2021/12/14 00:41:27;;;;;;;229.57;90.93;;;1.80;72.60;;;;;;5015260;28;20028;-81
2021/12/14 00:43:53;;;;;;;234.27;91.03;;;1.70;72.70;;;;;;5013018;28;20034;-83
2021/12/14 00:46:19;;;;;;;;;;;1.80;72.70;;;;;;5015786;28;20057;-83
2021/12/14 00:48:46;;;;;;;223.03;86.77;;;1.80;72.70;;;;;;5014683;28;19920;-82
2021/12/14 00:51:12;;;;;;;236.23;93.03;;;1.80;72.40;;;;;;5014652;28;20022;-81
2021/12/14 00:53:37;;;;;;;;;;;1.80;72.50;;;;;;5014295;28;20463;-83
2021/12/14 00:56:08;;;;;;;241.03;88.53;;;1.80;72.60;;;;;;5016305;28;19948;-81
2021/12/14 00:58:34;;;;;;;238.83;90.90;;;1.90;72.30;;;;;;5015526;28;20054;-82
2021/12/14 01:01:11;;;;;;;220.50;89.77;;;1.90;72.40;;;;;;5015149;28;20026;-83
2021/12/14 01:03:43;;;;;;;237.13;92.53;;;1.90;72.60;;;;;;5014510;28;20037;-83
2021/12/14 01:06:11;;;;;;;235.07;91.27;;;1.90;72.50;;;;;;5015968;28;20026;-83
2021/12/14 01:08:42;;;;;;;237.30;95.87;;;2.00;72.60;;;;;;5006695;28;20475;-82
2021/12/14 01:11:17;;;;;;;249.90;97.73;;;2.00;72.60;;;;;;5014735;28;20030;-83
2021/12/14 01:13:59;;;;;;;245.20;94.80;;;2.00;72.60;;;;;;5014853;28;20025;-83
2021/12/14 01:16:35;;;;;;;241.70;94.20;;;2.00;72.60;;;;;;5014465;28;20117;-83
2021/12/14 01:19:21;;;;;;;238.80;94.40;;;1.90;72.50;;;;;;5014452;28;20030;-81
2021/12/14 01:27:18;;;;;;;230.53;88.57;;;1.90;72.60;;;;;;5010093;28;20037;-82
2021/12/14 01:29:46;;;;;;;217.87;85.00;;;1.80;72.60;;;;;;5013886;28;20029;-83
2021/12/14 01:32:12;;;;;;;240.90;89.43;;;1.80;72.60;;;;;;5013970;28;20028;-83
2021/12/14 01:34:38;;;;;;;;;;;1.80;72.60;;;;;;5014946;28;20021;-82
2021/12/14 01:37:10;;;;;;;228.47;84.63;;;1.80;72.60;;;;;;5014105;28;19936;-82
2021/12/14 01:40:03;;;;;;;217.13;86.23;;;1.80;72.30;;;;;;5013745;28;20562;-82
2021/12/14 01:42:34;;;;;;;225.63;89.07;;;1.70;72.40;;;;;;5011406;28;20042;-83
2021/12/14 01:45:09;;;;;;;256.90;93.50;;;1.70;72.40;;;;;;5013921;28;20026;-83
2021/12/14 01:47:42;;;;;;;242.37;95.97;;;1.70;72.50;;;;;;5013792;28;20513;-82
2021/12/14 01:50:17;;;;;;;252.47;94.73;;;1.70;72.50;;;;;;5013230;28;20108;-82
2021/12/14 01:52:42;;;;;;;235.53;94.57;;;1.60;72.50;;;;;;5013957;28;20040;-82
2021/12/14 01:55:23;;;;;;;;;;;1.60;72.50;;;;;;5013818;28;20022;-82
2021/12/14 01:57:49;;;;;;;236.67;88.73;;;1.60;72.50;;;;;;5013740;28;20279;-82
2021/12/14 02:00:20;;;;;;;237.27;89.10;;;1.70;72.20;;;;;;5013288;28;20046;-82
2021/12/14 02:02:47;;;;;;;242.03;91.27;;;1.60;72.30;;;;;;5013839;28;20491;-81
2021/12/14 02:05:27;;;;;;;249.83;93.60;;;1.60;72.30;;;;;;5013658;28;20034;-82
2021/12/14 02:07:55;;;;;;;237.63;93.03;;;1.60;72.40;;;;;;5013812;28;20033;-82
2021/12/14 02:10:28;;;;;;;237.90;94.60;;;1.60;72.40;;;;;;5013318;28;20069;-83
2021/12/14 02:12:54;;;;;;;225.63;90.47;;;1.60;72.50;;;;;;5014783;28;20038;-82
2021/12/14 02:15:22;;;;;;;;;;;1.60;72.50;;;;;;5013761;28;20475;-82
2021/12/14 02:17:49;;;;;;;229.10;87.03;;;1.60;72.50;;;;;;5013476;28;20270;-82
2021/12/14 02:20:24;;;;;;;235.43;91.40;;;1.60;72.20;;;;;;5013394;28;20060;-82
2021/12/14 02:22:50;;;;;;;217.10;86.23;;;1.60;72.40;;;;;;5012895;28;20495;-83
2021/12/14 02:25:16;;;;;;;;;;;1.60;72.40;;;;;;5013581;28;20049;-82
2021/12/14 02:27:46;;;;;;;213.60;83.27;;;1.60;72.50;;;;;;5012888;28;20247;-83
2021/12/14 02:30:21;;;;;;;238.20;92.57;;;1.60;72.20;;;;;;5011630;28;20026;-82
2021/12/14 02:32:47;;;;;;;227.97;89.13;;;1.50;72.40;;;;;;5009105;28;20021;-82
2021/12/14 02:35:16;;;;;;;240.20;91.80;;;1.60;72.50;;;;;;5011807;28;20055;-83
2021/12/14 02:37:44;;;;;;;225.60;90.27;;;1.60;72.60;;;;;;5012884;28;20471;-82
2021/12/14 02:40:20;;;;;;;234.73;92.30;;;1.60;72.60;;;;;;5013088;28;20109;-82
2021/12/14 02:42:51;;;;;;;228.23;89.30;;;1.70;72.60;;;;;;5008870;28;20030;-84
2021/12/14 02:45:23;;;;;;;238.80;90.50;;;1.70;72.60;;;;;;5010952;28;20360;-81
2021/12/14 02:47:49;;;;;;;224.07;91.23;;;1.70;72.60;;;;;;5011871;28;20100;-82
2021/12/14 02:50:16;;;;;;;227.63;87.67;;;1.80;72.60;;;;;;5012550;28;20121;-82
2021/12/14 02:52:42;;;;;;;235.60;90.40;;;1.80;72.60;;;;;;5012654;28;20030;-82
2021/12/14 02:55:10;;;;;;;;;;;1.80;72.50;;;;;;5013191;28;20045;-82
2021/12/14 02:57:40;;;;;;;222.27;85.07;;;1.80;72.60;;;;;;5012303;28;19910;-82
2021/12/14 03:00:10;;;;;;;218.33;85.73;;;1.90;72.20;;;;;;5012490;28;20372;-83
2021/12/14 03:02:36;;;;;;;227.07;88.83;;;1.90;72.30;;;;;;5012508;28;20026;-86
2021/12/14 03:05:11;;;;;;;;;;;1.80;72.40;;;;;;5012720;28;20022;-82
2021/12/14 03:07:44;;;;;;;224.67;84.93;;;1.90;72.50;;;;;;5012518;28;20005;-84
2021/12/14 03:12:53;;;;;;;237.80;91.83;;;1.90;72.30;;;;;;5014355;28;20033;-82
2021/12/14 03:15:19;;;;;;;228.43;89.38;;;1.90;72.40;;;;;;5012984;28;20383;-82
2021/12/14 03:17:48;;;;;;;240.10;91.25;;;1.90;72.40;;;;;;5012808;28;20037;-83
2021/12/14 03:20:21;;;;;;;236.50;93.83;;;1.90;72.40;;;;;;5012970;28;20034;-82
2021/12/14 03:23:11;;;;;;;237.33;92.43;;;1.90;72.40;;;;;;4994732;28;20037;-83
2021/12/14 03:25:41;;;;;;;234.33;93.77;;;1.90;72.30;;;;;;5003119;28;20491;-83
2021/12/14 03:28:08;;;;;;;246.37;97.50;;;1.90;72.30;;;;;;5013399;28;20026;-82
2021/12/14 03:30:40;;;;;;;251.97;96.17;;;1.90;72.40;;;;;;5014030;28;20113;-82
2021/12/14 03:33:18;;;;;;;239.03;93.20;;;1.90;72.40;;;;;;5013069;28;20084;-82
2021/12/14 03:35:58;;;;;;;250.10;95.03;;;1.90;72.30;;;;;;5012914;28;20394;-83
2021/12/14 03:38:26;;;;;;;243.43;92.43;;;1.90;72.40;;;;;;5012734;28;20054;-83
2021/12/14 03:41:07;;;;;;;229.27;94.87;;;1.90;72.40;;;;;;5012950;28;20072;-83
2021/12/14 03:43:35;;;;;;;235.57;91.30;;;2.00;72.50;;;;;;5015236;28;20026;-83
2021/12/14 03:46:02;;;;;;;254.93;97.73;;;2.00;72.40;;;;;;5016593;28;20018;-83
2021/12/14 03:48:29;;;;;;;238.20;93.73;;;2.00;72.50;;;;;;5015986;28;20030;-83
2021/12/14 03:50:55;;;;;;;243.17;93.37;;;2.10;72.50;;;;;;5016401;28;20018;-83
2021/12/14 03:53:22;;;;;;;242.30;95.23;;;2.10;72.50;;;;;;5016230;28;20080;-82
2021/12/14 03:55:52;;;;;;;265.70;97.50;;;2.10;72.40;;;;;;5016696;28;20026;-82
2021/12/14 03:58:23;;;;;;;240.17;97.57;;;2.10;72.50;;;;;;5016611;28;20025;-82
2021/12/14 04:00:55;;;;;;;236.87;95.80;;;2.10;72.50;;;;;;5011866;28;20029;-81
2021/12/14 04:03:25;;;;;;;248.87;95.67;;;2.20;72.40;;;;;;5015924;28;20024;-82
2021/12/14 04:05:52;;;;;;;253.70;98.20;;;2.20;72.40;;;;;;5016225;28;20022;-81
2021/12/14 04:08:22;;;;;;;254.63;98.27;;;2.20;72.40;;;;;;5016098;28;20510;-82
2021/12/14 04:10:50;;;;;;;243.13;97.70;;;2.20;72.40;;;;;;5015367;28;20052;-82
2021/12/14 04:13:25;;;;;;;250.17;99.23;;;2.20;72.40;;;;;;5015181;28;20120;-82
2021/12/14 04:15:53;;;;;;;242.23;94.37;;;2.20;72.40;;;;;;5015022;28;20076;-82
2021/12/14 04:18:19;;;;;;;256.67;99.23;;;2.20;72.40;;;;;;5015698;28;20379;-82
2021/12/14 04:20:46;;;;;;;261.40;101.63;;;2.20;72.40;;;;;;5015774;28;20032;-81
2021/12/14 04:23:20;;;;;;;272.13;103.87;;;2.30;72.40;;;;;;5015627;28;20125;-83
2021/12/14 04:25:47;;;;;;;275.63;100.87;;;2.30;72.50;;;;;;5015774;28;20029;-82
2021/12/14 04:28:16;;;;;;;289.37;107.80;;;2.30;72.50;;;;;;5015832;28;20056;-83
2021/12/14 04:30:42;;;;;;;299.00;109.73;;;2.30;72.50;;;;;;5015788;28;20030;-83
2021/12/14 04:33:13;;;;;;;324.00;114.90;;;2.30;72.50;;;;;;5015522;28;20075;-83
2021/12/14 04:35:41;;;;;;;348.30;116.43;;;2.30;72.60;;;;;;5015092;28;20014;-82
2021/12/14 04:38:16;;;;;;;387.87;119.33;;;2.30;72.70;;;;;;5015336;28;20038;-82
2021/12/14 04:51:59;;;;;;;335.73;116.33;;;2.40;73.20;;;;;;5016703;28;20088;-82
2021/12/14 04:54:30;;;;;;;340.93;116.23;;;2.40;73.30;;;;;;5014459;28;20080;-83
2021/12/14 04:56:58;;;;;;;343.27;115.40;;;2.30;73.30;;;;;;5015204;28;20415;-83
2021/12/14 04:59:30;;;;;;;343.83;115.00;;;2.30;73.40;;;;;;5015063;28;20443;-84
2021/12/14 05:02:03;;;;;;;337.33;117.13;;;2.30;73.50;;;;;;5014965;28;20026;-83
2021/12/14 05:04:29;;;;;;;363.50;121.97;;;2.30;73.50;;;;;;5015111;28;20029;-83
2021/12/14 05:07:04;;;;;;;;;;;2.30;73.50;;;;;;5015170;28;20030;-83
2021/12/14 05:09:36;;;;;;;323.07;108.70;;;2.40;73.60;;;;;;5015076;28;19918;-82
2021/12/14 05:12:19;;;;;;;361.33;118.50;;;2.40;73.20;;;;;;5014594;28;20028;-83
2021/12/14 05:14:47;;;;;;;359.97;118.73;;;2.30;73.40;;;;;;5010040;28;20034;-83
2021/12/14 05:17:27;;;;;;;405.10;128.00;;;2.30;73.50;;;;;;5014744;28;20113;-82
2021/12/14 05:19:53;;;;;;;385.63;124.60;;;2.20;73.80;;;;;;5011935;28;20108;-82
2021/12/14 05:22:23;;;;;;;;;;;2.20;73.80;;;;;;5015191;28;20459;-83
2021/12/14 05:24:52;;;;;;;340.20;112.27;;;2.10;73.90;;;;;;5014192;28;19914;-82
2021/12/14 05:27:28;;;;;;;345.63;113.63;;;2.20;73.70;;;;;;5014102;28;20487;-82
2021/12/14 05:30:00;;;;;;;412.50;130.82;;;2.10;74.00;;;;;;5014319;28;20544;-83
2021/12/14 05:32:27;;;;;;;461.33;130.73;;;2.10;74.10;;;;;;5012808;28;20062;-83
2021/12/14 05:34:53;;;;;;;505.60;137.13;;;2.10;74.20;;;;;;5012775;28;20026;-83
2021/12/14 05:37:23;;;;;;;;;;;2.10;74.40;;;;;;5014559;28;20042;-83
2021/12/14 05:40:16;;;;;;;629.53;141.67;;;2.20;74.50;;;;;;5014095;28;19925;-83
2021/12/14 05:45:23;;;;;;;555.77;139.73;;;2.20;74.40;;;;;;5015539;28;20395;-82
2021/12/14 05:47:52;;;;;;;585.30;146.87;;;2.20;74.50;;;;;;5015259;28;20017;-83
2021/12/14 05:50:22;;;;;;;539.70;141.47;;;2.20;74.60;;;;;;5013768;28;20030;-82
2021/12/14 05:52:48;;;;;;;581.60;147.03;;;2.20;74.70;;;;;;5013290;28;20051;-84
2021/12/14 05:55:14;;;;;;;;;;;2.20;74.80;;;;;;5013546;28;20098;-83
2021/12/14 05:57:40;;;;;;;605.95;172.75;;;2.30;74.80;;;;;;5013782;28;20367;-83
2021/12/14 06:00:10;;;;;;;724.87;189.00;;;2.30;74.50;;;;;;5013041;28;20557;-83
2021/12/14 06:02:39;;;;;;;676.93;159.47;;;2.30;74.60;;;;;;5014966;28;20038;-83
2021/12/14 06:05:09;;;;;;;684.00;152.97;;;2.30;74.80;;;;;;5014886;28;20026;-82
2021/12/14 06:07:37;;;;;;;555.57;137.23;;;2.20;74.80;;;;;;5012792;28;20040;-83
2021/12/14 06:10:03;;;;;;;700.80;144.67;;;2.20;75.00;;;;;;5013546;28;20046;-83
2021/12/14 06:12:32;;;;;;;736.73;156.37;;;2.20;75.10;;;;;;5013488;28;20478;-83
2021/12/14 06:15:00;;;;;;;642.57;145.53;;;2.20;75.20;;;;;;5012799;28;20026;-84
2021/12/14 06:17:30;;;;;;;736.03;152.87;;;2.20;75.30;;;;;;5014628;28;20029;-85
2021/12/14 06:20:08;;;;;;;898.17;157.83;;;2.20;75.30;;;;;;5014637;28;20030;-83
2021/12/14 06:22:36;;;;;;;803.10;152.53;;;2.20;75.40;;;;;;5013267;28;20025;-84
2021/12/14 06:25:15;;;;;;;837.87;156.73;;;2.20;75.40;;;;;;5013518;28;20029;-84
2021/12/14 06:27:42;;;;;;;889.90;155.13;;;2.30;75.50;;;;;;5013201;28;20454;-83
2021/12/14 06:30:12;;;;;;;907.07;162.63;;;2.30;75.50;;;;;;5013925;28;20383;-83
2021/12/14 06:32:45;;;;;;;684.50;148.73;;;2.30;75.50;;;;;;5013564;28;20394;-83
2021/12/14 06:35:20;;;;;;;780.37;151.13;;;2.30;75.60;;;;;;5013773;28;20597;-83
2021/12/14 06:40:34;;;;;;;885.13;144.33;;;2.30;75.80;;;;;;5015019;28;20080;-84
2021/12/14 06:43:03;;;;;;;895.97;138.93;;;2.30;75.70;;;;;;5013380;28;20030;-84
2021/12/14 06:45:38;;;;;;;759.30;134.90;;;2.30;75.80;;;;;;5013458;28;20049;-84
2021/12/14 06:48:11;;;;;;;609.17;123.97;;;2.30;75.90;;;;;;5012408;28;20096;-83
2021/12/14 06:50:45;;;;;;;781.87;123.40;;;2.30;75.90;;;;;;5013422;28;20026;-83
2021/12/14 06:53:14;;;;;;;1004.27;144.43;;;2.30;76.00;;;;;;5013188;28;20057;-84
2021/12/14 06:55:41;;;;;;;894.80;133.10;;;2.30;76.10;;;;;;5014775;28;20036;-83
2021/12/14 06:58:14;;;;;;;803.63;127.20;;;2.40;76.10;;;;;;5013392;28;20109;-83
2021/12/14 07:00:48;;;;;;;916.90;131.83;;;2.40;76.20;;;;;;5013407;28;20053;-83
2021/12/14 07:03:15;;;;;;;862.70;114.67;;;2.50;76.20;;;;;;4998245;28;20025;-84
2021/12/14 07:05:47;;;;;;;795.00;113.77;;;2.50;76.20;;;;;;5014423;28;20040;-84
2021/12/14 07:08:26;;;;;;;856.27;120.27;;;2.50;76.20;;;;;;5012898;28;20120;-83
2021/12/14 07:10:53;;;;;;;693.73;106.90;;;2.50;76.30;;;;;;5014642;28;20061;-84
2021/12/14 07:13:27;;;;;;;603.00;115.37;;;2.60;76.30;;;;;;5015429;28;20026;-85
2021/12/14 07:15:53;;;;;;;791.90;134.37;;;2.60;76.40;;;;;;5014460;28;20521;-84
2021/12/14 07:18:29;;;;;;;;;;;2.60;76.40;;;;;;5019199;28;20025;-87
2021/12/14 07:20:56;;;;;;;658.40;128.03;;;2.60;76.40;;;;;;5019087;28;19909;-86
2021/12/14 07:23:28;;;;;;;739.23;131.43;;;2.70;76.00;;;;;;5018593;28;20034;-86
2021/12/14 07:26:04;;;;;;;659.13;130.47;;;2.70;76.10;;;;;;5018931;28;20040;-87
2021/12/14 07:28:50;;;;;;;617.00;131.87;;;2.70;76.20;;;;;;5018565;28;20037;-86
2021/12/14 07:31:22;;;;;;;619.80;128.90;;;2.60;76.30;;;;;;5018652;28;20210;-87
2021/12/14 07:33:56;;;;;;;578.63;131.47;;;2.60;76.20;;;;;;5019793;28;20057;-86
2021/12/14 07:36:25;;;;;;;539.83;116.80;;;2.60;76.10;;;;;;5010397;28;20052;-85
2021/12/14 07:38:55;;;;;;;548.40;120.97;;;2.60;76.10;;;;;;5018564;28;20470;-86
2021/12/14 07:41:36;;;;;;;536.33;113.40;;;2.50;76.00;;;;;;5019475;28;20022;-87
2021/12/14 07:44:05;;;;;;;523.73;108.60;;;2.50;76.00;;;;;;5021710;28;20045;-86
2021/12/14 07:46:39;;;;;;;536.83;110.10;;;2.40;75.90;;;;;;5020741;28;20116;-86
2021/12/14 07:49:10;;;;;;;518.23;106.47;;;2.30;75.90;;;;;;5018103;28;20041;-87
2021/12/14 07:51:42;;;;;;;490.80;109.53;;;2.30;76.00;;;;;;5019072;28;20022;-86
2021/12/14 07:54:13;;;;;;;559.73;109.73;;;2.30;76.10;;;;;;5018282;28;20022;-87
2021/12/14 07:56:44;;;;;;;549.53;109.57;;;2.30;76.10;;;;;;5018039;28;20022;-87
2021/12/14 07:59:24;;;;;;;507.77;103.90;;;2.30;76.10;;;;;;5018024;28;20041;-86
2021/12/14 08:02:07;;;;;;;531.13;105.47;;;2.30;76.10;;;;;;5018845;28;20487;-86
2021/12/14 08:04:35;;;;;;;561.70;106.60;;;2.40;76.10;;;;;;5017369;28;20006;-86
2021/12/14 08:07:01;;;;;;;596.13;111.27;;;2.40;76.00;;;;;;5017619;28;20546;-87
2021/12/14 08:09:35;;;;;;;;;;;2.40;76.00;;;;;;5017926;28;20103;-87
2021/12/14 08:12:02;;;;;;;636.20;96.60;;;2.40;76.00;;;;;;5017795;28;19956;-86
2021/12/14 08:14:29;;;;;;;635.17;99.23;;;2.50;75.70;;;;;;5017141;28;20084;-85
2021/12/14 08:16:59;;;;;;;567.27;86.70;;;2.50;75.80;;;;;;5017468;28;20117;-86
2021/12/14 08:19:33;;;;;;;662.33;103.70;;;2.50;75.80;;;;;;5018944;28;20049;-87
2021/12/14 08:22:02;;;;;;;626.37;96.77;;;2.50;75.90;;;;;;5017960;28;20037;-86
2021/12/14 08:24:28;;;;;;;607.60;91.93;;;2.50;75.90;;;;;;5001796;28;20501;-86
2021/12/14 08:26:56;;;;;;;;;;;2.50;76.00;;;;;;5017592;28;20037;-87
2021/12/14 08:29:24;;;;;;;557.23;79.80;;;2.60;76.10;;;;;;5015700;28;19952;-88
2021/12/14 08:32:04;;;;;;;347.00;62.20;;;2.60;75.70;;;;;;5018438;28;20403;-85
2021/12/14 08:34:34;;;;;;;444.37;59.27;;;2.70;75.90;;;;;;5017716;28;20018;-86
2021/12/14 08:37:02;;;;;;;374.43;58.77;;;2.70;76.00;;;;;;5017489;28;20029;-86
2021/12/14 08:39:31;;;;;;;396.23;59.20;;;2.80;76.00;;;;;;5017493;28;20614;-85
2021/12/14 08:42:17;;;;;;;325.10;56.83;;;2.80;76.00;;;;;;5017878;28;20041;-87
2021/12/14 08:44:51;;;;;;;275.30;54.00;;;2.90;76.10;;;;;;5018349;28;20036;-87
2021/12/14 08:47:27;;;;;;;219.27;50.17;;;2.90;76.00;;;;;;5019290;28;20497;-85
2021/12/14 08:49:54;;;;;;;241.07;47.93;;;3.00;76.00;;;;;;5017719;28;20022;-86
2021/12/14 08:52:21;;;;;;;283.23;51.57;;;3.10;75.90;;;;;;5001454;28;20285;-87
2021/12/14 08:54:47;;;;;;;217.63;49.27;;;3.20;75.90;;;;;;5017282;28;20078;-85
2021/12/14 08:57:18;;;;;;;231.83;49.17;;;3.20;75.80;;;;;;4997237;28;20026;-86
2021/12/14 08:59:49;;;;;;;236.53;51.20;;;3.30;75.80;;;;;;4997972;28;20023;-86
2021/12/14 09:02:18;;;;;;;256.07;48.67;;;3.30;75.70;;;;;;5000560;28;20041;-86
2021/12/14 09:05:09;;;;;;;343.57;59.80;;;3.30;75.70;;;;;;5001736;28;20453;-86
2021/12/14 09:07:34;;;;;;;254.90;56.07;;;3.40;75.60;;;;;;5001094;28;20030;-85
2021/12/14 09:10:03;;;;;;;;;;;3.40;75.60;;;;;;5002296;28;20085;-86
2021/12/14 09:19:11;;;;;;;228.40;55.27;;;3.70;75.30;;;;;;5002044;28;20501;-86
2021/12/14 09:21:40;;;;;;;259.23;60.03;;;3.80;75.20;;;;;;5003085;28;20032;-86
2021/12/14 09:24:10;;;;;;;248.70;61.63;;;3.80;75.10;;;;;;5000450;28;20096;-88
2021/12/14 09:26:38;;;;;;;255.90;67.20;;;3.80;75.10;;;;;;4999829;28;20034;-86
2021/12/14 09:29:08;;;;;;;254.67;63.67;;;3.90;75.00;;;;;;5005453;28;20032;-85
2021/12/14 09:31:39;;;;;;;220.10;59.00;;;3.90;75.00;;;;;;5007123;28;20026;-86
2021/12/14 09:34:06;;;;;;;228.87;61.30;;;4.00;75.00;;;;;;5007388;28;20030;-85
2021/12/14 09:36:33;;;;;;;213.97;62.57;;;4.00;74.90;;;;;;5006554;28;20116;-85
2021/12/14 09:39:03;;;;;;;;;;;4.10;74.90;;;;;;5006161;28;20100;-86
2021/12/14 09:41:33;;;;;;;225.10;58.90;;;4.10;74.90;;;;;;4999612;28;19964;-86
2021/12/14 09:44:04;;;;;;;240.20;63.47;;;4.20;74.50;;;;;;4999434;28;20030;-86
2021/12/14 09:46:31;;;;;;;213.80;56.97;;;4.20;74.50;;;;;;4999665;28;20142;-85
2021/12/14 09:49:01;;;;;;;234.73;63.23;;;4.20;74.50;;;;;;5000086;28;20026;-86
2021/12/14 09:51:34;;;;;;;231.03;60.90;;;4.30;74.50;;;;;;4999346;28;20029;-85
2021/12/14 09:54:03;;;;;;;235.27;61.03;;;4.30;74.50;;;;;;5000343;28;20019;-86
2021/12/14 09:56:34;;;;;;;227.40;63.27;;;4.40;74.30;;;;;;4998436;28;20476;-86
2021/12/14 09:59:02;;;;;;;225.27;65.87;;;4.40;74.20;;;;;;4997954;28;20026;-86
2021/12/14 10:01:43;;;;;;;223.87;63.30;;;4.40;74.20;;;;;;4999100;28;20027;-87
2021/12/14 10:04:14;;;;;;;215.87;65.93;;;4.40;74.10;;;;;;4999308;28;20033;-87
2021/12/14 10:06:41;;;;;;;203.27;61.83;;;4.50;74.00;;;;;;4998598;28;20061;-87
2021/12/14 10:09:11;;;;;;;223.93;63.00;;;4.50;73.90;;;;;;4999430;28;20026;-86
2021/12/14 10:12:01;;;;;;;203.97;61.67;;;4.60;73.80;;;;;;4999995;28;20022;-86
2021/12/14 10:14:35;;;;;;;211.63;61.73;;;4.60;73.60;;;;;;4999407;28;20110;-86
2021/12/14 10:17:09;;;;;;;223.27;62.10;;;4.70;73.50;;;;;;4999297;28;20036;-86
2021/12/14 10:19:38;;;;;;;209.83;61.37;;;4.70;73.50;;;;;;4999308;28;20038;-86
2021/12/14 10:22:09;;;;;;;197.57;61.80;;;4.80;73.50;;;;;;4983021;28;20072;-87
2021/12/14 10:24:36;;;;;;;218.83;65.80;;;4.80;73.40;;;;;;5001577;28;20027;-86
2021/12/14 10:27:10;;;;;;;220.63;66.33;;;4.80;73.30;;;;;;5000463;28;20026;-86
2021/12/14 10:29:36;;;;;;;240.53;72.47;;;4.90;73.10;;;;;;5000924;28;20061;-86
2021/12/14 10:32:05;;;;;;;;;;;5.00;73.00;;;;;;4999813;28;20023;-83
2021/12/14 10:34:40;;;;;;;219.37;68.33;;;5.10;73.00;;;;;;4997903;28;19906;-86
2021/12/14 10:37:23;;;;;;;224.07;66.13;;;5.10;72.60;;;;;;4996002;28;20052;-86
2021/12/14 10:42:51;;;;;;;238.33;67.97;;;5.20;72.70;;;;;;4978949;28;20076;-86
2021/12/14 10:45:19;;;;;;;256.47;76.20;;;5.20;72.60;;;;;;4994036;28;20022;-86
2021/12/14 10:47:45;;;;;;;216.97;70.33;;;5.30;72.50;;;;;;4996632;28;20121;-85
2021/12/14 10:50:14;;;;;;;199.57;67.87;;;5.30;72.50;;;;;;4996999;28;20480;-83
2021/12/14 10:52:43;;;;;;;213.70;66.70;;;5.30;72.50;;;;;;4996387;28;20105;-86
2021/12/14 10:55:15;;;;;;;211.20;63.40;;;5.30;72.40;;;;;;4996386;28;20102;-87
2021/12/14 10:57:41;;;;;;;218.07;68.90;;;5.40;72.30;;;;;;4997027;28;20036;-87
2021/12/14 11:00:13;;;;;;;216.30;67.37;;;5.40;72.20;;;;;;4996576;28;20399;-86
2021/12/14 11:02:42;;;;;;;230.77;66.90;;;5.40;72.10;;;;;;4993770;28;20027;-88
2021/12/14 11:05:15;;;;;;;220.60;68.53;;;5.50;72.10;;;;;;4977653;28;20070;-86
2021/12/14 11:07:45;;;;;;;192.40;62.97;;;5.50;72.00;;;;;;4988912;28;20037;-90
2021/12/14 11:10:16;;;;;;;214.10;64.50;;;5.50;71.90;;;;;;4998654;28;20041;-90
2021/12/14 11:12:45;;;;;;;196.20;64.13;;;5.50;71.90;;;;;;4998799;28;20077;-88
2021/12/14 11:15:40;;;;;;;176.73;61.07;;;5.50;71.80;;;;;;4998869;28;20030;-91
2021/12/14 11:18:13;;;;;;;199.63;62.43;;;5.50;71.80;;;;;;4997740;28;20039;-89
2021/12/14 11:21:12;;;;;;;179.83;56.50;;;5.60;71.70;;;;;;5007336;28;20026;-89
2021/12/14 11:23:46;;;;;;;169.43;53.37;;;5.60;71.80;;;;;;4997151;28;20030;-88
2021/12/14 11:26:28;;;;;;;172.40;58.30;;;5.60;71.60;;;;;;5006979;28;20555;-89
2021/12/14 11:28:59;;;;;;;170.90;58.67;;;5.60;71.60;;;;;;4999019;28;20543;-87
2021/12/14 11:31:28;;;;;;;172.43;56.30;;;5.60;71.50;;;;;;4997124;28;20065;-89
2021/12/14 11:33:56;;;;;;;168.50;53.67;;;5.60;71.50;;;;;;4998038;28;20023;-88
2021/12/14 11:36:32;;;;;;;200.83;65.23;;;5.60;71.50;;;;;;4995334;28;20030;-85
2021/12/14 11:39:22;;;;;;;173.60;57.77;;;5.50;71.50;;;;;;4993692;28;20042;-85
2021/12/14 11:42:07;;;;;;;188.60;58.57;;;5.40;71.60;;;;;;4994255;28;20079;-85
2021/12/14 11:44:59;;;;;;;193.67;59.43;;;5.40;71.60;;;;;;4992758;28;20034;-84
2021/12/14 11:50:30;;;;;;;162.80;50.23;;;5.30;71.80;;;;;;4994978;28;20038;-85
2021/12/14 11:53:01;;;;;;;113.30;36.30;;;5.30;71.90;;;;;;4993806;28;20023;-84
2021/12/14 11:55:49;;;;;;;126.60;44.10;;;5.30;71.80;;;;;;4995534;28;20023;-85
2021/12/14 11:58:25;;;;;;;125.20;42.53;;;5.10;71.90;;;;;;4993709;28;20021;-85
2021/12/14 12:01:04;;;;;;;99.75;40.10;;;5.10;72.00;;;;;;4993702;28;20030;-83
2021/12/14 12:03:35;;;;;;;117.43;42.73;;;5.10;72.20;;;;;;4993772;28;20030;-85
2021/12/14 12:06:10;;;;;;;165.60;56.80;;;5.00;72.20;;;;;;4997527;28;20046;-86
2021/12/14 12:11:37;;;;;;;152.97;49.33;;;5.10;72.30;;;;;;4999163;28;20045;-85
2021/12/14 12:14:29;;;;;;;165.30;53.87;;;5.00;72.30;;;;;;4998255;28;20022;-86
2021/12/14 12:17:11;;;;;;;133.87;46.07;;;5.10;72.40;;;;;;4997942;28;20040;-86
2021/12/14 12:19:37;;;;;;;137.00;44.70;;;5.10;72.30;;;;;;4997012;28;20089;-86
2021/12/14 12:22:15;;;;;;;144.43;46.17;;;5.10;72.30;;;;;;4997491;28;20097;-86
2021/12/14 12:24:48;;;;;;;137.90;47.27;;;5.20;72.40;;;;;;4997067;28;20037;-85
2021/12/14 12:27:21;;;;;;;138.10;46.20;;;5.20;72.30;;;;;;4997514;28;20031;-84
2021/12/14 12:30:29;;;;;;;133.90;44.00;;;5.20;72.30;;;;;;4996819;28;20663;-85
2021/12/14 12:32:56;;;;;;;150.75;52.45;;;5.20;72.40;;;;;;4968553;28;20030;-86
2021/12/14 12:35:28;;;;;;;140.00;47.93;;;5.20;72.20;;;;;;4996680;28;20389;-86
2021/12/14 12:37:57;;;;;;;133.63;48.47;;;5.10;72.30;;;;;;4997140;28;20046;-86
2021/12/14 12:40:48;;;;;;;130.00;43.03;;;5.20;72.40;;;;;;4997173;28;20085;-85
2021/12/14 12:43:46;;;;;;;141.17;41.97;;;5.10;72.50;;;;;;4977777;28;20045;-86
2021/12/14 12:46:22;;;;;;;142.73;44.87;;;5.10;72.40;;;;;;4981166;28;20019;-86
2021/12/14 13:02:52;;;;;;;106.13;35.23;;;5.10;72.60;;;;;;4998597;28;20030;-83
2021/12/14 13:05:37;;;;;;;95.40;35.90;;;5.10;72.50;;;;;;4981807;28;20042;-83
2021/12/14 13:08:05;;;;;;;88.93;34.83;;;5.10;72.60;;;;;;4981012;28;20109;-83
2021/12/14 13:10:39;;;;;;;107.10;40.10;;;5.10;72.50;;;;;;4996060;28;20021;-84
2021/12/14 13:20:47;;;;;;;114.13;40.33;;;5.20;72.60;;;;;;4987235;28;20038;-84
2021/12/14 13:23:13;;;;;;;100.87;35.33;;;5.20;72.50;;;;;;4978482;28;20112;-87
2021/12/14 13:26:17;;;;;;;93.60;39.70;;;5.20;72.50;;;;;;4981275;28;20109;-85
2021/12/14 13:28:43;;;;;;;98.43;38.50;;;5.10;72.70;;;;;;4986102;28;20038;-85
2021/12/14 13:31:09;;;;;;;;;;;5.20;72.60;;;;;;4998253;28;20037;-85
2021/12/14 13:33:34;;;;;;;90.93;33.00;;;5.20;72.60;;;;;;4995688;28;19906;-83
2021/12/14 13:36:00;;;;;;;;;;;5.20;72.40;;;;;;4995017;28;20030;-84
2021/12/14 13:38:26;;;;;;;89.20;33.00;;;5.30;72.50;;;;;;4996611;28;19952;-84
2021/12/14 13:40:53;;;;;;;;;;;5.30;72.30;;;;;;4993375;28;20030;-84
2021/12/14 13:43:19;;;;;;;102.28;36.92;;;5.30;72.50;;;;;;4978185;28;20363;-83
2021/12/14 13:45:46;;;;;;;;;;;5.20;72.30;;;;;;4977216;28;20074;-84
2021/12/14 13:48:14;;;;;;;94.15;33.67;;;5.30;72.50;;;;;;4978279;28;20275;-85
2021/12/14 13:50:51;;;;;;;101.70;36.23;;;5.30;72.30;;;;;;4976330;28;20081;-84
2021/12/14 13:53:18;;;;;;;97.93;38.93;;;5.20;72.50;;;;;;4979491;28;20403;-85
2021/12/14 13:55:50;;;;;;;95.33;36.83;;;5.20;72.60;;;;;;4993360;28;20055;-82
2021/12/14 13:58:26;;;;;;;98.37;39.13;;;5.20;72.70;;;;;;4977251;28;20519;-84
2021/12/14 14:01:14;;;;;;;105.30;39.00;;;5.20;72.80;;;;;;4976724;28;20065;-85
2021/12/14 14:03:47;;;;;;;113.03;42.67;;;5.20;72.80;;;;;;4993176;28;20038;-84